createdAt,value
2018-07-24T00:00:18.777Z,93
2018-07-24T00:01:20.785Z,93
2018-07-24T00:02:23.057Z,93
2018-07-24T00:03:25.056Z,94
2018-07-24T00:04:27.053Z,94
2018-07-24T00:05:29.040Z,93
2018-07-24T00:06:31.040Z,94
2018-07-24T00:07:33.031Z,94
2018-07-24T00:08:35.039Z,94
2018-07-24T00:09:37.032Z,94
2018-07-24T00:10:39.330Z,94
2018-07-24T00:11:41.330Z,94
2018-07-24T00:12:43.316Z,93
2018-07-24T00:13:45.322Z,94
2018-07-24T00:14:47.318Z,94
2018-07-24T00:15:49.306Z,94
2018-07-24T00:16:51.610Z,94
2018-07-24T00:17:54.324Z,94
2018-07-24T00:18:56.313Z,94
2018-07-24T00:19:58.309Z,94
2018-07-24T00:21:00.607Z,94
2018-07-24T00:22:02.596Z,93
2018-07-24T00:23:04.599Z,93
2018-07-24T00:24:06.601Z,93
2018-07-24T00:25:08.592Z,93
2018-07-24T00:26:10.603Z,94
2018-07-24T00:27:12.598Z,93
2018-07-24T00:28:14.599Z,93
2018-07-24T00:29:16.879Z,94
2018-07-24T00:30:18.870Z,94
2018-07-24T00:31:20.863Z,94
2018-07-24T00:32:22.851Z,94
2018-07-24T00:33:24.857Z,94
2018-07-24T00:34:26.842Z,95
2018-07-24T00:35:28.849Z,95
2018-07-24T00:36:30.844Z,95
2018-07-24T00:37:33.154Z,95
2018-07-24T00:38:35.167Z,94
2018-07-24T00:39:37.147Z,95
2018-07-24T00:40:39.148Z,95
2018-07-24T00:41:41.139Z,94
2018-07-24T00:42:43.145Z,94
2018-07-24T00:43:45.140Z,94
2018-07-24T00:44:47.413Z,94
2018-07-24T00:45:49.413Z,94
2018-07-24T00:46:51.400Z,94
2018-07-24T00:47:53.399Z,94
2018-07-24T00:48:55.786Z,94
2018-07-24T00:49:57.786Z,94
2018-07-24T00:50:59.772Z,95
2018-07-24T00:52:01.775Z,94
2018-07-24T00:53:03.773Z,94
2018-07-24T00:54:05.804Z,94
2018-07-24T00:55:08.534Z,94
2018-07-24T00:56:10.540Z,94
2018-07-24T00:57:12.922Z,94
2018-07-24T00:58:14.917Z,94
2018-07-24T00:59:17.192Z,94
2018-07-24T01:00:19.195Z,94
2018-07-24T01:01:21.192Z,94
2018-07-24T01:02:23.203Z,94
2018-07-24T01:03:25.505Z,94
2018-07-24T01:04:27.772Z,94
2018-07-24T01:05:29.761Z,95
2018-07-24T01:06:31.769Z,95
2018-07-24T01:07:33.760Z,95
2018-07-24T01:08:36.693Z,95
2018-07-24T01:09:38.900Z,94
2018-07-24T01:10:40.890Z,95
2018-07-24T01:11:43.197Z,94
2018-07-24T01:12:45.187Z,94
2018-07-24T01:13:47.186Z,94
2018-07-24T01:14:49.171Z,94
2018-07-24T01:15:51.175Z,94
2018-07-24T01:16:53.168Z,95
2018-07-24T01:17:55.154Z,95
2018-07-24T01:18:57.155Z,95
2018-07-24T01:19:59.523Z,95
2018-07-24T01:21:01.805Z,95
2018-07-24T01:22:04.188Z,95
2018-07-24T01:23:06.189Z,95
2018-07-24T01:24:08.840Z,94
2018-07-24T01:25:10.840Z,94
2018-07-24T01:26:12.833Z,94
2018-07-24T01:27:15.123Z,94
2018-07-24T01:28:17.126Z,94
2018-07-24T01:29:19.398Z,94
2018-07-24T01:30:21.389Z,94
2018-07-24T01:31:23.395Z,94
2018-07-24T01:32:25.384Z,94
2018-07-24T01:33:27.383Z,95
2018-07-24T01:34:29.669Z,95
2018-07-24T01:35:31.942Z,95
2018-07-24T01:36:34.229Z,95
2018-07-24T01:37:36.236Z,95
2018-07-24T01:38:38.628Z,95
2018-07-24T01:39:40.619Z,95
2018-07-24T01:40:42.632Z,95
2018-07-24T01:41:44.628Z,95
2018-07-24T01:42:46.627Z,94
2018-07-24T01:43:48.636Z,95
2018-07-24T01:44:50.628Z,95
2018-07-24T01:45:52.914Z,95
2018-07-24T01:46:54.911Z,95
2018-07-24T01:47:56.921Z,95
2018-07-24T01:48:59.300Z,95
2018-07-24T01:50:01.583Z,95
2018-07-24T01:51:03.595Z,95
2018-07-24T01:52:05.867Z,95
2018-07-24T01:53:07.880Z,95
2018-07-24T01:54:09.873Z,95
2018-07-24T01:55:11.885Z,95
2018-07-24T01:56:14.177Z,95
2018-07-24T01:57:16.190Z,95
2018-07-24T01:58:18.185Z,95
2018-07-24T01:59:20.188Z,95
2018-07-24T02:00:22.189Z,95
2018-07-24T02:01:24.181Z,95
2018-07-24T02:02:26.184Z,95
2018-07-24T02:03:28.193Z,95
2018-07-24T02:04:30.184Z,95
2018-07-24T02:05:32.189Z,95
2018-07-24T02:06:34.197Z,95
2018-07-24T02:07:36.504Z,95
2018-07-24T02:08:38.497Z,95
2018-07-24T02:09:40.505Z,95
2018-07-24T02:10:42.508Z,94
2018-07-24T02:11:44.897Z,95
2018-07-24T02:12:46.887Z,95
2018-07-24T02:13:48.900Z,95
2018-07-24T02:14:51.464Z,95
2018-07-24T02:15:53.774Z,95
2018-07-24T02:16:55.782Z,95
2018-07-24T02:17:58.068Z,95
2018-07-24T02:19:00.076Z,96
2018-07-24T02:20:02.741Z,96
2018-07-24T02:21:05.036Z,95
2018-07-24T02:22:07.028Z,96
2018-07-24T02:23:09.308Z,96
2018-07-24T02:24:11.314Z,96
2018-07-24T02:25:13.307Z,96
2018-07-24T02:26:15.319Z,96
2018-07-24T02:27:17.317Z,96
2018-07-24T02:28:19.315Z,96
2018-07-24T02:29:21.615Z,96
2018-07-24T02:30:24.013Z,96
2018-07-24T02:31:26.005Z,96
2018-07-24T02:32:28.012Z,96
2018-07-24T02:33:30.573Z,96
2018-07-24T02:34:32.845Z,96
2018-07-24T02:35:34.851Z,96
2018-07-24T02:36:37.242Z,96
2018-07-24T02:37:39.808Z,96
2018-07-24T02:38:41.815Z,96
2018-07-24T02:39:43.821Z,96
2018-07-24T02:40:45.833Z,96
2018-07-24T02:41:47.842Z,96
2018-07-24T02:42:50.116Z,96
2018-07-24T02:43:52.702Z,96
2018-07-24T02:44:54.696Z,96
2018-07-24T02:45:56.705Z,96
2018-07-24T02:46:58.703Z,96
2018-07-24T02:48:00.985Z,96
2018-07-24T02:49:02.986Z,96
2018-07-24T02:50:04.988Z,96
2018-07-24T02:51:07.000Z,96
2018-07-24T02:52:08.997Z,96
2018-07-24T02:53:11.565Z,96
2018-07-24T02:54:14.222Z,96
2018-07-24T02:55:17.215Z,96
2018-07-24T02:56:19.499Z,96
2018-07-24T02:57:21.495Z,96
2018-07-24T02:58:23.506Z,96
2018-07-24T02:59:26.162Z,96
2018-07-24T03:00:28.165Z,96
2018-07-24T03:01:30.752Z,96
2018-07-24T03:02:33.062Z,96
2018-07-24T03:03:35.051Z,96
2018-07-24T03:04:37.068Z,96
2018-07-24T03:05:39.070Z,96
2018-07-24T03:06:41.067Z,96
2018-07-24T03:07:43.079Z,96
2018-07-24T03:08:45.074Z,96
2018-07-24T03:09:47.064Z,96
2018-07-24T03:10:49.356Z,96
2018-07-24T03:11:51.358Z,96
2018-07-24T03:12:53.349Z,96
2018-07-24T03:13:55.349Z,96
2018-07-24T03:14:57.344Z,96
2018-07-24T03:15:59.353Z,96
2018-07-24T03:17:01.647Z,96
2018-07-24T03:18:03.953Z,96
2018-07-24T03:19:05.941Z,96
2018-07-24T03:20:08.253Z,96
2018-07-24T03:21:10.246Z,96
2018-07-24T03:22:12.632Z,96
2018-07-24T03:23:15.013Z,96
2018-07-24T03:24:17.024Z,96
2018-07-24T03:25:19.026Z,96
2018-07-24T03:26:21.691Z,96
2018-07-24T03:27:23.686Z,96
2018-07-24T03:28:25.699Z,96
2018-07-24T03:29:27.981Z,96
2018-07-24T03:30:29.981Z,96
2018-07-24T03:31:32.376Z,96
2018-07-24T03:32:34.365Z,96
2018-07-24T03:33:36.372Z,96
2018-07-24T03:34:38.376Z,96
2018-07-24T03:35:40.383Z,96
2018-07-24T03:36:42.430Z,97
2018-07-24T03:37:44.438Z,97
2018-07-24T03:38:46.441Z,97
2018-07-24T03:39:48.501Z,96
2018-07-24T03:40:50.827Z,97
2018-07-24T03:41:52.824Z,96
2018-07-24T03:42:54.819Z,96
2018-07-24T03:43:57.495Z,96
2018-07-24T03:44:59.831Z,96
2018-07-24T03:46:01.776Z,97
2018-07-24T03:47:03.782Z,96
2018-07-24T03:48:06.074Z,97
2018-07-24T03:49:08.359Z,97
2018-07-24T03:50:10.368Z,97
2018-07-24T03:51:12.761Z,96
2018-07-24T03:52:15.031Z,96
2018-07-24T03:53:17.040Z,97
2018-07-24T03:54:19.317Z,96
2018-07-24T03:55:21.315Z,96
2018-07-24T03:56:23.325Z,96
2018-07-24T03:57:25.313Z,96
2018-07-24T03:58:27.321Z,96
2018-07-24T03:59:29.704Z,96
2018-07-24T04:00:31.713Z,96
2018-07-24T04:01:33.706Z,96
2018-07-24T04:02:36.388Z,96
2018-07-24T04:03:38.387Z,97
2018-07-24T04:04:40.395Z,96
2018-07-24T04:05:42.384Z,96
2018-07-24T04:06:44.675Z,96
2018-07-24T04:07:46.685Z,97
2018-07-24T04:08:48.694Z,96
2018-07-24T04:09:50.687Z,96
2018-07-24T04:10:52.690Z,96
2018-07-24T04:11:54.692Z,96
2018-07-24T04:12:56.689Z,96
2018-07-24T04:13:58.703Z,96
2018-07-24T04:15:00.695Z,96
2018-07-24T04:16:02.694Z,96
2018-07-24T04:17:04.707Z,96
2018-07-24T04:18:07.088Z,95
2018-07-24T04:19:09.470Z,96
2018-07-24T04:20:11.474Z,95
2018-07-24T04:21:13.471Z,95
2018-07-24T04:22:15.482Z,95
2018-07-24T04:23:17.880Z,95
2018-07-24T04:24:20.187Z,95
2018-07-24T04:25:22.176Z,95
2018-07-24T04:26:24.189Z,95
2018-07-24T04:27:26.568Z,95
2018-07-24T04:28:28.570Z,95
2018-07-24T04:29:30.587Z,95
2018-07-24T04:30:32.862Z,94
2018-07-24T04:31:34.870Z,94
2018-07-24T04:32:37.150Z,94
2018-07-24T04:33:39.163Z,94
2018-07-24T04:34:41.157Z,94
2018-07-24T04:35:43.162Z,94
2018-07-24T04:36:45.170Z,94
2018-07-24T04:37:47.167Z,93
2018-07-24T04:38:49.171Z,94
2018-07-24T04:39:51.689Z,93
2018-07-24T04:40:53.642Z,94
2018-07-24T04:41:56.035Z,93
2018-07-24T04:42:58.026Z,93
2018-07-24T04:44:00.034Z,92
2018-07-24T04:45:02.041Z,93
2018-07-24T04:46:04.033Z,93
2018-07-24T04:47:06.045Z,93
2018-07-24T04:48:08.042Z,93
2018-07-24T04:49:10.039Z,93
2018-07-24T04:50:12.049Z,92
2018-07-24T04:51:14.046Z,92
2018-07-24T04:52:16.049Z,92
2018-07-24T04:53:18.052Z,91
2018-07-24T04:54:20.048Z,91
2018-07-24T04:55:22.056Z,91
2018-07-24T04:56:24.064Z,92
2018-07-24T04:57:26.074Z,92
2018-07-24T04:58:28.065Z,92
2018-07-24T04:59:30.079Z,91
2018-07-24T05:00:32.078Z,91
2018-07-24T05:01:34.081Z,90
2018-07-24T05:02:36.406Z,90
2018-07-24T05:03:38.365Z,89
2018-07-24T05:04:40.371Z,90
2018-07-24T05:05:42.371Z,90
2018-07-24T05:06:44.387Z,90
2018-07-24T05:07:46.378Z,90
2018-07-24T05:08:48.671Z,89
2018-07-24T05:09:50.956Z,89
2018-07-24T05:10:53.337Z,89
2018-07-24T05:11:55.353Z,88
2018-07-24T05:12:57.631Z,88
2018-07-24T05:13:59.637Z,87
2018-07-24T05:15:02.203Z,88
2018-07-24T05:16:04.600Z,86
2018-07-24T05:17:06.597Z,86
2018-07-24T05:18:08.599Z,85
2018-07-24T05:19:10.607Z,85
2018-07-24T05:20:13.267Z,84
2018-07-24T05:21:15.274Z,85
2018-07-24T05:22:17.284Z,85
2018-07-24T05:23:19.282Z,83
2018-07-24T05:24:21.288Z,83
2018-07-24T05:25:23.295Z,84
2018-07-24T05:26:25.581Z,83
2018-07-24T05:27:27.592Z,81
2018-07-24T05:28:29.591Z,82
2018-07-24T05:29:31.866Z,82
2018-07-24T05:30:33.862Z,81
2018-07-24T05:31:36.261Z,80
2018-07-24T05:32:38.256Z,80
2018-07-24T05:33:40.544Z,81
2018-07-24T05:34:42.550Z,82
2018-07-24T05:35:44.935Z,82
2018-07-24T05:36:46.947Z,82
2018-07-24T05:37:48.946Z,82
2018-07-24T05:38:51.036Z,82
2018-07-24T05:39:53.329Z,81
2018-07-24T05:40:55.913Z,81
2018-07-24T05:41:58.297Z,78
2018-07-24T05:43:00.299Z,78
2018-07-24T05:44:02.310Z,79
2018-07-24T05:45:04.304Z,78
2018-07-24T05:46:06.598Z,77
2018-07-24T05:47:08.606Z,80
2018-07-24T05:48:11.200Z,79
2018-07-24T05:49:13.192Z,78
2018-07-24T05:50:15.205Z,77
2018-07-24T05:51:17.210Z,77
2018-07-24T05:52:19.488Z,77
2018-07-24T05:53:21.804Z,75
2018-07-24T05:54:23.810Z,77
2018-07-24T05:55:25.813Z,76
2018-07-24T05:56:27.811Z,76
2018-07-24T05:57:29.822Z,77
2018-07-24T05:58:31.832Z,76
2018-07-24T05:59:33.834Z,76
2018-07-24T06:00:36.225Z,75
2018-07-24T06:01:38.507Z,75
2018-07-24T06:02:40.507Z,74
2018-07-24T06:03:42.506Z,76
2018-07-24T06:04:44.522Z,75
2018-07-24T06:05:46.518Z,74
2018-07-24T06:06:48.525Z,73
2018-07-24T06:07:50.821Z,74
2018-07-24T06:08:53.103Z,74
2018-07-24T06:09:55.118Z,72
2018-07-24T06:10:57.118Z,73
2018-07-24T06:11:59.125Z,73
2018-07-24T06:13:01.135Z,72
2018-07-24T06:14:03.136Z,73
2018-07-24T06:15:05.137Z,73
2018-07-24T06:16:07.133Z,72
2018-07-24T06:17:09.656Z,72
2018-07-24T06:18:12.038Z,72
2018-07-24T06:19:14.046Z,72
2018-07-24T06:20:16.057Z,71
2018-07-24T06:21:18.068Z,71
2018-07-24T06:22:20.063Z,72
2018-07-24T06:23:22.353Z,71
2018-07-24T06:24:24.359Z,70
2018-07-24T06:25:26.744Z,69
2018-07-24T06:26:28.764Z,69
2018-07-24T06:27:30.766Z,69
2018-07-24T06:28:32.767Z,69
2018-07-24T06:29:35.066Z,68
2018-07-24T06:30:37.069Z,67
2018-07-24T06:31:39.069Z,67
2018-07-24T06:32:41.070Z,68
2018-07-24T06:33:43.466Z,67
2018-07-24T06:34:45.465Z,67
2018-07-24T06:35:47.849Z,68
2018-07-24T06:36:50.236Z,67
2018-07-24T06:37:52.254Z,67
2018-07-24T06:38:54.252Z,66
2018-07-24T06:39:56.263Z,66
2018-07-24T06:40:58.272Z,65
2018-07-24T06:42:00.557Z,65
2018-07-24T06:43:03.240Z,65
2018-07-24T06:44:05.246Z,66
2018-07-24T06:45:07.258Z,65
2018-07-24T06:46:09.253Z,64
2018-07-24T06:47:11.562Z,65
2018-07-24T06:48:13.846Z,64
2018-07-24T06:49:15.845Z,64
2018-07-24T06:50:17.856Z,64
2018-07-24T06:51:19.976Z,64
2018-07-24T06:52:23.755Z,65
2018-07-24T06:53:25.771Z,64
2018-07-24T06:54:28.166Z,64
2018-07-24T06:55:30.165Z,63
2018-07-24T06:56:32.235Z,63
2018-07-24T06:57:34.190Z,63
2018-07-24T06:58:36.194Z,63
2018-07-24T06:59:38.210Z,62
2018-07-24T07:00:40.214Z,62
2018-07-24T07:01:42.217Z,63
2018-07-24T07:02:44.236Z,63
2018-07-24T07:03:46.234Z,62
2018-07-24T07:04:48.520Z,62
2018-07-24T07:05:50.530Z,63
2018-07-24T07:06:52.536Z,62
2018-07-24T07:07:54.548Z,61
2018-07-24T07:08:56.570Z,61
2018-07-24T07:09:58.579Z,61
2018-07-24T07:11:01.158Z,60
2018-07-24T07:12:03.155Z,61
2018-07-24T07:13:05.250Z,61
2018-07-24T07:14:07.673Z,60
2018-07-24T07:15:09.677Z,61
2018-07-24T07:16:11.760Z,60
2018-07-24T07:17:13.716Z,59
2018-07-24T07:18:15.741Z,59
2018-07-24T07:19:18.021Z,59
2018-07-24T07:20:20.040Z,58
2018-07-24T07:21:22.042Z,57
2018-07-24T07:22:24.059Z,57
2018-07-24T07:23:26.110Z,58
2018-07-24T07:24:28.410Z,58
2018-07-24T07:25:30.426Z,57
2018-07-24T07:26:32.437Z,57
2018-07-24T07:27:34.465Z,57
2018-07-24T07:28:37.025Z,58
2018-07-24T07:29:39.036Z,56
2018-07-24T07:30:41.046Z,55
2018-07-24T07:31:43.058Z,56
2018-07-24T07:32:45.079Z,57
2018-07-24T07:33:47.085Z,56
2018-07-24T07:34:49.761Z,56
2018-07-24T07:35:51.779Z,55
2018-07-24T07:36:53.788Z,55
2018-07-24T07:37:55.791Z,55
2018-07-24T07:38:57.811Z,55
2018-07-24T07:39:59.815Z,55
2018-07-24T07:41:02.131Z,55
2018-07-24T07:42:04.536Z,55
2018-07-24T07:43:06.834Z,54
2018-07-24T07:44:09.138Z,55
2018-07-24T07:45:11.454Z,54
2018-07-24T07:46:13.458Z,54
2018-07-24T07:47:15.472Z,55
2018-07-24T07:48:17.489Z,55
2018-07-24T07:49:19.497Z,54
2018-07-24T07:50:21.513Z,54
2018-07-24T07:51:23.548Z,54
2018-07-24T07:52:25.916Z,54
2018-07-24T07:53:28.235Z,54
2018-07-24T07:54:30.251Z,54
2018-07-24T07:55:32.266Z,56
2018-07-24T07:56:34.659Z,57
2018-07-24T07:57:36.681Z,54
2018-07-24T07:58:38.701Z,54
2018-07-24T07:59:40.698Z,55
2018-07-24T08:00:42.715Z,54
2018-07-24T08:01:44.734Z,55
2018-07-24T08:02:47.039Z,53
2018-07-24T08:03:49.053Z,53
2018-07-24T08:04:51.072Z,54
2018-07-24T08:05:53.076Z,54
2018-07-24T08:06:55.091Z,53
2018-07-24T08:07:57.690Z,53
2018-07-24T08:09:00.682Z,54
2018-07-24T08:10:02.859Z,52
2018-07-24T08:11:05.169Z,52
2018-07-24T08:12:08.028Z,53
2018-07-24T08:13:10.082Z,52
2018-07-24T08:14:12.895Z,51
2018-07-24T08:15:14.907Z,52
2018-07-24T08:16:16.954Z,52
2018-07-24T08:17:19.016Z,54
2018-07-24T08:18:21.058Z,53
2018-07-24T08:19:23.113Z,50
2018-07-24T08:20:25.165Z,51
2018-07-24T08:21:27.608Z,50
2018-07-24T08:22:29.954Z,50
2018-07-24T08:23:32.004Z,50
2018-07-24T08:24:34.063Z,50
2018-07-24T08:25:36.106Z,51
2018-07-24T08:26:38.446Z,50
2018-07-24T08:27:40.852Z,50
2018-07-24T08:28:42.859Z,51
2018-07-24T08:29:44.901Z,51
2018-07-24T08:30:46.965Z,53
2018-07-24T08:31:49.011Z,49
2018-07-24T08:32:51.059Z,49
2018-07-24T08:33:53.681Z,49
2018-07-24T08:34:55.747Z,52
2018-07-24T08:35:58.101Z,49
2018-07-24T08:37:00.439Z,49
2018-07-24T08:38:02.499Z,49
2018-07-24T08:39:04.541Z,48
2018-07-24T08:40:06.601Z,49
2018-07-24T08:41:08.664Z,50
2018-07-24T08:42:10.708Z,51
2018-07-24T08:43:12.764Z,50
2018-07-24T08:44:14.820Z,50
2018-07-24T08:45:16.873Z,49
2018-07-24T08:46:19.368Z,47
2018-07-24T08:47:21.437Z,46
2018-07-24T08:48:23.485Z,45
2018-07-24T08:49:25.536Z,45
2018-07-24T08:50:28.001Z,45
2018-07-24T08:51:30.083Z,45
2018-07-24T08:52:32.743Z,45
2018-07-24T08:53:35.354Z,46
2018-07-24T08:54:38.769Z,44
2018-07-24T08:55:41.598Z,43
2018-07-24T08:56:43.396Z,43
2018-07-24T08:57:45.483Z,42
2018-07-24T08:58:47.505Z,45
2018-07-24T08:59:49.846Z,45
2018-07-24T09:00:51.902Z,48
2018-07-24T09:01:53.945Z,44
2018-07-24T09:02:56.071Z,45
2018-07-24T09:03:58.056Z,44
2018-07-24T09:05:00.408Z,43
2018-07-24T09:06:02.845Z,42
2018-07-24T09:07:05.181Z,41
2018-07-24T09:08:07.426Z,42
2018-07-24T09:09:09.476Z,42
2018-07-24T09:10:11.535Z,43
2018-07-24T09:11:13.601Z,43
2018-07-24T09:12:15.649Z,40
2018-07-24T09:13:17.992Z,41
2018-07-24T09:14:20.053Z,41
2018-07-24T09:15:22.393Z,42
2018-07-24T09:16:24.453Z,41
2018-07-24T09:17:26.803Z,40
2018-07-24T09:18:28.858Z,41
2018-07-24T09:19:30.921Z,42
2018-07-24T09:20:32.973Z,42
2018-07-24T09:21:35.309Z,41
2018-07-24T09:22:37.357Z,40
2018-07-24T09:23:39.710Z,40
2018-07-24T09:24:41.754Z,40
2018-07-24T09:25:44.105Z,39
2018-07-24T09:26:46.445Z,39
2018-07-24T09:27:48.716Z,40
2018-07-24T09:28:51.067Z,40
2018-07-24T09:29:53.459Z,39
2018-07-24T09:30:55.521Z,39
2018-07-24T09:31:57.571Z,41
2018-07-24T09:33:00.268Z,43
2018-07-24T09:34:02.324Z,42
2018-07-24T09:35:04.384Z,41
2018-07-24T09:36:06.839Z,43
2018-07-24T09:37:11.129Z,40
2018-07-24T09:38:19.067Z,40
2018-07-24T09:39:25.382Z,43
2018-07-24T09:40:32.848Z,41
2018-07-24T09:41:42.366Z,41
2018-07-24T09:42:46.078Z,40
2018-07-24T09:43:53.623Z,41
2018-07-24T09:45:02.928Z,41
2018-07-24T09:46:08.543Z,42
2018-07-24T09:47:10.974Z,39
2018-07-24T09:48:13.035Z,40
2018-07-24T09:49:15.085Z,39
2018-07-24T09:50:17.154Z,40
2018-07-24T09:51:19.497Z,41
2018-07-24T09:52:21.557Z,38
2018-07-24T09:53:23.621Z,39
2018-07-24T09:54:26.062Z,40
2018-07-24T09:55:28.115Z,40
2018-07-24T09:56:30.597Z,39
2018-07-24T09:57:32.913Z,40
2018-07-24T09:58:34.962Z,40
2018-07-24T09:59:37.413Z,38
2018-07-24T10:00:39.470Z,38
2018-07-24T10:01:41.525Z,39
2018-07-24T10:02:43.596Z,39
2018-07-24T10:03:45.941Z,40
2018-07-24T10:04:48.006Z,40
2018-07-24T10:05:50.057Z,40
2018-07-24T10:06:52.130Z,39
2018-07-24T10:07:54.185Z,39
2018-07-24T10:08:56.241Z,40
2018-07-24T10:09:58.309Z,38
2018-07-24T10:11:01.233Z,38
2018-07-24T10:12:03.243Z,38
2018-07-24T10:13:06.914Z,38
2018-07-24T10:14:08.882Z,39
2018-07-24T10:15:10.935Z,39
2018-07-24T10:16:13.697Z,37
2018-07-24T10:17:15.762Z,38
2018-07-24T10:18:17.821Z,39
2018-07-24T10:19:19.891Z,38
2018-07-24T10:20:22.236Z,36
2018-07-24T10:21:24.296Z,40
2018-07-24T10:22:27.081Z,39
2018-07-24T10:23:29.424Z,37
2018-07-24T10:24:31.502Z,36
2018-07-24T10:25:33.574Z,37
2018-07-24T10:26:35.915Z,37
2018-07-24T10:27:38.670Z,37
2018-07-24T10:28:40.737Z,37
2018-07-24T10:29:42.806Z,37
2018-07-24T10:30:44.858Z,38
2018-07-24T10:31:46.928Z,37
2018-07-24T10:32:48.984Z,38
2018-07-24T10:33:51.046Z,37
2018-07-24T10:34:53.116Z,38
2018-07-24T10:35:55.166Z,37
2018-07-24T10:36:57.235Z,39
2018-07-24T10:37:59.966Z,36
2018-07-24T10:39:02.038Z,37
2018-07-24T10:40:04.093Z,38
2018-07-24T10:41:06.157Z,37
2018-07-24T10:42:08.231Z,37
2018-07-24T10:43:10.620Z,36
2018-07-24T10:44:12.641Z,35
2018-07-24T10:45:14.701Z,36
2018-07-24T10:46:17.046Z,36
2018-07-24T10:47:19.110Z,36
2018-07-24T10:48:21.181Z,35
2018-07-24T10:49:23.291Z,37
2018-07-24T10:50:25.312Z,37
2018-07-24T10:51:28.240Z,36
2018-07-24T10:52:30.581Z,36
2018-07-24T10:53:32.652Z,36
2018-07-24T10:54:34.734Z,36
2018-07-24T10:55:37.063Z,37
2018-07-24T10:56:39.131Z,34
2018-07-24T10:57:41.506Z,34
2018-07-24T10:58:43.578Z,36
2018-07-24T10:59:45.641Z,35
2018-07-24T11:00:47.713Z,35
2018-07-24T11:01:50.073Z,35
2018-07-24T11:02:52.144Z,35
2018-07-24T11:03:54.202Z,35
2018-07-24T11:04:56.283Z,36
2018-07-24T11:05:58.343Z,37
2018-07-24T11:07:00.417Z,34
2018-07-24T11:08:02.497Z,33
2018-07-24T11:09:04.554Z,35
2018-07-24T11:10:06.624Z,35
2018-07-24T11:11:08.687Z,36
2018-07-24T11:12:10.762Z,35
2018-07-24T11:13:12.817Z,36
2018-07-24T11:14:14.888Z,35
2018-07-24T11:15:16.959Z,35
2018-07-24T11:16:19.022Z,35
2018-07-24T11:17:21.099Z,36
2018-07-24T11:18:23.475Z,37
2018-07-24T11:19:25.522Z,36
2018-07-24T11:20:27.869Z,36
2018-07-24T11:21:29.947Z,35
2018-07-24T11:22:32.153Z,34
2018-07-24T11:23:34.078Z,36
2018-07-24T11:24:36.155Z,35
2018-07-24T11:25:38.213Z,35
2018-07-24T11:26:40.292Z,34
2018-07-24T11:27:42.657Z,36
2018-07-24T11:28:44.711Z,36
2018-07-24T11:29:46.782Z,36
2018-07-24T11:30:48.854Z,35
2018-07-24T11:31:51.209Z,36
2018-07-24T11:32:53.777Z,34
2018-07-24T11:33:56.177Z,35
2018-07-24T11:34:58.243Z,33
2018-07-24T11:36:01.344Z,36
2018-07-24T11:37:03.068Z,35
2018-07-24T11:38:05.445Z,35
2018-07-24T11:39:07.525Z,32
2018-07-24T11:40:09.609Z,33
2018-07-24T11:41:11.994Z,34
2018-07-24T11:42:14.053Z,34
2018-07-24T11:43:16.131Z,33
2018-07-24T11:44:18.590Z,36
2018-07-24T11:45:20.684Z,35
2018-07-24T11:46:23.030Z,33
2018-07-24T11:47:25.108Z,33
2018-07-24T11:48:27.179Z,33
2018-07-24T11:49:29.250Z,33
2018-07-24T11:50:31.333Z,35
2018-07-24T11:51:33.407Z,35
2018-07-24T11:52:35.886Z,32
2018-07-24T11:53:37.948Z,32
2018-07-24T11:54:40.024Z,32
2018-07-24T11:55:42.089Z,33
2018-07-24T11:56:44.161Z,33
2018-07-24T11:57:46.263Z,31
2018-07-24T11:58:48.300Z,32
2018-07-24T11:59:50.371Z,32
2018-07-24T12:00:52.444Z,31
2018-07-24T12:01:54.501Z,33
2018-07-24T12:02:56.577Z,31
2018-07-24T12:03:58.644Z,32
2018-07-24T12:05:01.019Z,32
2018-07-24T12:06:03.091Z,30
2018-07-24T12:07:05.160Z,30
2018-07-24T12:08:07.223Z,31
2018-07-24T12:09:09.289Z,33
2018-07-24T12:10:11.374Z,31
2018-07-24T12:11:13.433Z,32
2018-07-24T12:12:15.508Z,33
2018-07-24T12:13:18.158Z,32
2018-07-24T12:14:20.230Z,33
2018-07-24T12:15:22.295Z,32
2018-07-24T12:16:24.368Z,32
2018-07-24T12:17:26.820Z,33
2018-07-24T12:18:28.891Z,33
2018-07-24T12:19:30.987Z,33
2018-07-24T12:20:33.027Z,34
2018-07-24T12:21:35.487Z,33
2018-07-24T12:22:37.552Z,33
2018-07-24T12:23:39.915Z,33
2018-07-24T12:24:41.978Z,33
2018-07-24T12:25:44.041Z,34
2018-07-24T12:26:46.107Z,33
2018-07-24T12:27:48.184Z,32
2018-07-24T12:28:50.247Z,33
2018-07-24T12:29:52.317Z,34
2018-07-24T12:30:54.398Z,33
2018-07-24T12:31:56.458Z,32
2018-07-24T12:32:58.818Z,32
2018-07-24T12:34:01.280Z,33
2018-07-24T12:35:04.028Z,32
2018-07-24T12:36:06.220Z,32
2018-07-24T12:37:08.174Z,32
2018-07-24T12:38:10.919Z,33
2018-07-24T12:39:13.382Z,32
2018-07-24T12:40:15.453Z,33
2018-07-24T12:41:17.519Z,33
2018-07-24T12:42:19.580Z,33
2018-07-24T12:43:21.660Z,32
2018-07-24T12:44:23.720Z,33
2018-07-24T12:45:25.794Z,32
2018-07-24T12:46:27.866Z,32
2018-07-24T12:47:29.928Z,32
2018-07-24T12:48:32.009Z,32
2018-07-24T12:49:34.076Z,32
2018-07-24T12:50:36.149Z,32
2018-07-24T12:51:38.498Z,32
2018-07-24T12:52:40.579Z,31
2018-07-24T12:53:42.641Z,31
2018-07-24T12:54:44.703Z,32
2018-07-24T12:55:47.359Z,32
2018-07-24T12:56:49.420Z,33
2018-07-24T12:57:51.529Z,31
2018-07-24T12:58:53.573Z,33
2018-07-24T12:59:56.031Z,32
2018-07-24T13:00:58.088Z,31
2018-07-24T13:02:00.163Z,33
2018-07-24T13:03:02.285Z,32
2018-07-24T13:04:04.430Z,33
2018-07-24T13:05:06.433Z,31
2018-07-24T13:06:08.865Z,31
2018-07-24T13:07:10.846Z,32
2018-07-24T13:08:12.927Z,33
2018-07-24T13:09:14.985Z,33
2018-07-24T13:10:17.338Z,32
2018-07-24T13:11:19.409Z,32
2018-07-24T13:12:21.469Z,32
2018-07-24T13:13:23.551Z,31
2018-07-24T13:14:25.626Z,32
2018-07-24T13:15:27.700Z,32
2018-07-24T13:16:29.814Z,32
2018-07-24T13:17:32.155Z,32
2018-07-24T13:18:34.217Z,32
2018-07-24T13:19:36.365Z,33
2018-07-24T13:20:38.800Z,34
2018-07-24T13:21:40.859Z,33
2018-07-24T13:22:43.318Z,33
2018-07-24T13:23:45.382Z,33
2018-07-24T13:24:47.466Z,32
2018-07-24T13:25:49.521Z,32
2018-07-24T13:26:51.600Z,32
2018-07-24T13:27:54.014Z,32
2018-07-24T13:28:56.049Z,33
2018-07-24T13:29:58.516Z,32
2018-07-24T13:31:00.589Z,32
2018-07-24T13:32:02.721Z,31
2018-07-24T13:33:04.743Z,31
2018-07-24T13:34:07.084Z,32
2018-07-24T13:35:09.161Z,32
2018-07-24T13:36:11.233Z,32
2018-07-24T13:37:13.683Z,33
2018-07-24T13:38:15.765Z,33
2018-07-24T13:39:17.836Z,33
2018-07-24T13:40:19.903Z,32
2018-07-24T13:41:21.985Z,33
2018-07-24T13:42:24.329Z,32
2018-07-24T13:43:26.398Z,32
2018-07-24T13:44:28.756Z,32
2018-07-24T13:45:30.819Z,33
2018-07-24T13:46:33.282Z,32
2018-07-24T13:47:35.355Z,32
2018-07-24T13:48:37.441Z,33
2018-07-24T13:49:39.501Z,32
2018-07-24T13:50:41.587Z,32
2018-07-24T13:51:43.652Z,33
2018-07-24T13:52:45.729Z,32
2018-07-24T13:53:47.815Z,31
2018-07-24T13:54:49.879Z,32
2018-07-24T13:55:51.954Z,31
2018-07-24T13:56:54.021Z,32
2018-07-24T13:57:56.105Z,33
2018-07-24T13:58:58.250Z,32
2018-07-24T14:00:00.648Z,32
2018-07-24T14:01:02.724Z,32
2018-07-24T14:02:04.793Z,33
2018-07-24T14:03:06.879Z,32
2018-07-24T14:04:08.950Z,32
2018-07-24T14:05:11.017Z,32
2018-07-24T14:06:13.089Z,32
2018-07-24T14:07:15.179Z,32
2018-07-24T14:08:17.615Z,32
2018-07-24T14:09:19.672Z,33
2018-07-24T14:10:21.746Z,32
2018-07-24T14:11:23.837Z,32
2018-07-24T14:12:25.911Z,32
2018-07-24T14:13:27.983Z,32
2018-07-24T14:14:30.458Z,31
2018-07-24T14:15:32.526Z,32
2018-07-24T14:16:34.599Z,31
2018-07-24T14:17:36.676Z,31
2018-07-24T14:18:38.748Z,32
2018-07-24T14:19:40.836Z,32
2018-07-24T14:20:42.916Z,32
2018-07-24T14:21:45.087Z,31
2018-07-24T14:22:47.075Z,31
2018-07-24T14:23:49.166Z,31
2018-07-24T14:24:51.813Z,31
2018-07-24T14:25:53.890Z,31
2018-07-24T14:26:55.980Z,30
2018-07-24T14:27:58.043Z,30
2018-07-24T14:29:00.133Z,31
2018-07-24T14:30:02.499Z,31
2018-07-24T14:31:04.589Z,32
2018-07-24T14:32:06.672Z,33
2018-07-24T14:33:08.758Z,33
2018-07-24T14:34:11.234Z,33
2018-07-24T14:35:13.302Z,33
2018-07-24T14:36:15.395Z,33
2018-07-24T14:37:17.469Z,34
2018-07-24T14:38:19.546Z,34
2018-07-24T14:39:21.904Z,33
2018-07-24T14:40:24.035Z,32
2018-07-24T14:41:26.081Z,33
2018-07-24T14:42:28.155Z,33
2018-07-24T14:43:30.237Z,33
2018-07-24T14:44:32.305Z,33
2018-07-24T14:45:34.388Z,33
2018-07-24T14:46:36.458Z,33